createdAt,value
2022-11-04T00:01:52.961Z,79.82
2022-11-04T00:04:00.654Z,78.20
2022-11-04T00:06:07.933Z,83.13
2022-11-04T00:08:29.097Z,98.13
2022-11-04T00:10:49.177Z,111.72
2022-11-04T00:12:57.687Z,129.32
2022-11-04T00:15:24.735Z,134.57
2022-11-04T00:17:30.843Z,126.10
2022-11-04T00:19:50.926Z,118.47
2022-11-04T00:22:15.976Z,97.25
2022-11-04T00:24:46.919Z,83.47
2022-11-04T00:27:10.634Z,75.60
2022-11-04T00:29:18.327Z,59.15
2022-11-04T00:31:42.201Z,58.03
2022-11-04T00:33:49.793Z,51.40
2022-11-04T00:35:59.431Z,54.83
2022-11-04T00:38:06.812Z,48.25
2022-11-04T00:40:17.889Z,47.33
2022-11-04T00:42:24.970Z,39.00
2022-11-04T00:44:32.558Z,41.42
2022-11-04T00:46:39.689Z,42.42
2022-11-04T00:48:47.181Z,38.83
2022-11-04T00:50:54.257Z,40.95
2022-11-04T00:53:03.541Z,34.78
2022-11-04T00:55:11.540Z,34.60
2022-11-04T00:57:20.977Z,35.22
2022-11-04T00:59:28.208Z,35.65
2022-11-04T01:01:35.797Z,34.53
2022-11-04T01:03:43.799Z,35.85
2022-11-04T01:05:51.389Z,37.53
2022-11-04T01:07:59.646Z,39.13
2022-11-04T01:10:07.135Z,38.83
2022-11-04T01:12:14.420Z,38.03
2022-11-04T01:14:23.912Z,37.85
2022-11-04T01:16:32.010Z,41.75
2022-11-04T01:18:40.163Z,40.83
2022-11-04T01:20:47.452Z,40.13
2022-11-04T01:22:54.780Z,45.53
2022-11-04T01:25:02.065Z,44.58
2022-11-04T01:27:09.502Z,45.60
2022-11-04T01:29:16.741Z,44.78
2022-11-04T01:31:27.601Z,40.95
2022-11-04T01:33:34.836Z,43.13
2022-11-04T01:35:42.276Z,40.42
2022-11-04T01:37:49.507Z,39.47
2022-11-04T01:39:57.048Z,40.70
2022-11-04T01:44:51.551Z,41.65
2022-11-04T01:47:00.576Z,35.05
2022-11-04T01:49:24.908Z,36.55
2022-11-04T01:51:34.600Z,34.25
2022-11-04T01:53:44.956Z,36.45
2022-11-04T01:55:56.233Z,32.70
2022-11-04T01:58:07.458Z,35.57
2022-11-04T02:00:15.768Z,25.80
2022-11-04T02:02:24.984Z,21.83
2022-11-04T02:04:34.124Z,21.08
2022-11-04T02:06:41.510Z,20.35
2022-11-04T02:08:49.255Z,20.30
2022-11-04T02:11:01.146Z,19.25
2022-11-04T02:13:08.428Z,21.58
2022-11-04T02:15:16.177Z,22.63
2022-11-04T02:17:39.180Z,22.10
2022-11-04T02:20:08.991Z,22.98
2022-11-04T02:23:06.282Z,25.05
2022-11-04T02:25:44.556Z,22.58
2022-11-04T02:28:11.603Z,20.17
2022-11-04T02:30:21.654Z,23.08
2022-11-04T02:32:37.691Z,19.77
2022-11-04T02:34:56.189Z,23.83
2022-11-04T02:37:11.256Z,23.00
2022-11-04T02:39:28.369Z,22.42
2022-11-04T02:41:43.385Z,20.30
2022-11-04T02:44:01.011Z,22.02
2022-11-04T02:46:15.002Z,22.35
2022-11-04T02:48:30.171Z,22.35
2022-11-04T02:50:41.909Z,24.45
2022-11-04T02:52:56.465Z,21.98
2022-11-04T02:55:07.997Z,21.55
2022-11-04T02:57:20.093Z,22.75
2022-11-04T03:01:42.383Z,28.92
2022-11-04T03:03:52.038Z,26.67
2022-11-04T03:06:01.265Z,23.02
2022-11-04T03:08:12.492Z,20.02
2022-11-04T03:10:22.897Z,22.65
2022-11-04T03:12:35.505Z,42.65
2022-11-04T03:14:45.709Z,24.50
2022-11-04T03:16:57.548Z,19.48
2022-11-04T03:19:11.489Z,16.65
2022-11-04T03:21:20.358Z,17.98
2022-11-04T03:23:27.542Z,53.40
2022-11-04T03:25:40.254Z,35.10
2022-11-04T03:27:52.758Z,33.30
2022-11-04T03:30:05.300Z,23.67
2022-11-04T03:32:24.068Z,20.80
2022-11-04T03:34:31.713Z,28.95
2022-11-04T03:36:40.325Z,28.83
2022-11-04T03:38:48.122Z,28.73
2022-11-04T03:40:55.921Z,20.35
2022-11-04T03:43:08.696Z,17.38
2022-11-04T03:45:17.756Z,18.70
2022-11-04T03:47:28.523Z,23.40
2022-11-04T03:49:36.473Z,20.25
2022-11-04T03:51:44.222Z,19.50
2022-11-04T03:53:51.756Z,17.27
2022-11-04T03:56:12.513Z,17.27
2022-11-04T03:58:28.698Z,18.65
2022-11-04T04:00:41.207Z,16.27
2022-11-04T04:03:05.385Z,15.20
2022-11-04T04:05:18.873Z,17.42
2022-11-04T04:07:33.011Z,16.92
2022-11-04T04:09:45.472Z,18.23
2022-11-04T04:11:58.639Z,15.65
2022-11-04T04:14:09.454Z,18.92
2022-11-04T04:16:24.741Z,17.13
2022-11-04T04:18:42.454Z,17.45
2022-11-04T04:20:50.866Z,24.50
2022-11-04T04:23:02.041Z,21.55
2022-11-04T04:25:28.882Z,14.55
2022-11-04T04:27:36.116Z,17.20
2022-11-04T04:29:45.397Z,16.13
2022-11-04T04:31:53.654Z,14.38
2022-11-04T04:34:02.986Z,16.75
2022-11-04T04:36:12.881Z,16.65
2022-11-04T04:38:41.002Z,13.45
2022-11-04T04:41:08.669Z,14.70
2022-11-04T04:43:36.493Z,14.95
2022-11-04T04:45:45.863Z,19.98
2022-11-04T04:47:53.506Z,16.05
2022-11-04T04:50:03.760Z,23.00
2022-11-04T04:52:12.527Z,15.75
2022-11-04T04:54:19.965Z,16.65
2022-11-04T04:56:27.402Z,15.38
2022-11-04T04:58:34.533Z,13.90
2022-11-04T05:00:42.072Z,14.45
2022-11-04T05:02:49.612Z,19.17
2022-11-04T05:04:57.512Z,20.75
2022-11-04T05:07:11.054Z,24.92
2022-11-04T05:09:18.736Z,16.73
2022-11-04T05:11:29.347Z,14.30
2022-11-04T05:13:35.559Z,19.60
2022-11-04T05:15:42.738Z,14.75
2022-11-04T05:17:50.739Z,12.18
2022-11-04T05:19:57.971Z,12.70
2022-11-04T05:22:07.406Z,14.48
2022-11-04T05:24:15.204Z,18.70
2022-11-04T05:26:22.537Z,19.15
2022-11-04T05:28:30.078Z,15.15
2022-11-04T05:30:38.695Z,14.68
2022-11-04T05:32:45.876Z,15.18
2022-11-04T05:34:53.619Z,29.25
2022-11-04T05:37:00.750Z,19.83
2022-11-04T05:39:10.544Z,12.70
2022-11-04T05:41:26.643Z,16.55
2022-11-04T05:43:34.124Z,13.75
2022-11-04T05:45:41.252Z,14.10
2022-11-04T05:47:48.688Z,15.00
2022-11-04T05:49:55.770Z,14.23
2022-11-04T05:52:02.949Z,15.32
2022-11-04T05:54:12.086Z,15.07
2022-11-04T05:56:19.937Z,14.35
2022-11-04T05:58:27.262Z,13.40
2022-11-04T06:00:34.821Z,12.10
2022-11-04T06:02:42.449Z,15.93
2022-11-04T06:04:50.135Z,11.80
2022-11-04T06:06:57.328Z,13.18
2022-11-04T06:09:05.985Z,12.20
2022-11-04T06:11:15.224Z,12.10
2022-11-04T06:13:22.652Z,14.93
2022-11-04T06:15:29.935Z,12.68
2022-11-04T06:17:37.635Z,12.80
2022-11-04T06:19:44.762Z,13.00
2022-11-04T06:21:52.350Z,13.80
2022-11-04T06:24:00.664Z,12.82
2022-11-04T06:26:08.304Z,15.88
2022-11-04T06:28:17.177Z,15.55
2022-11-04T06:30:26.095Z,12.85
2022-11-04T06:32:33.432Z,13.25
2022-11-04T06:34:41.028Z,12.13
2022-11-04T06:36:51.532Z,12.63
2022-11-04T06:39:04.425Z,11.50
2022-11-04T06:41:14.958Z,12.88
2022-11-04T06:43:24.238Z,12.57
2022-11-04T06:45:31.572Z,17.75
2022-11-04T06:47:39.161Z,15.40
2022-11-04T06:49:46.445Z,15.55
2022-11-04T06:51:54.909Z,13.13
2022-11-04T06:54:02.245Z,15.25
2022-11-04T06:56:09.937Z,12.20
2022-11-04T06:58:17.939Z,13.05
2022-11-04T07:00:27.634Z,14.23
2022-11-04T07:02:35.004Z,15.43
2022-11-04T07:04:42.461Z,14.90
2022-11-04T07:06:49.945Z,14.25
2022-11-04T07:08:59.589Z,13.98
2022-11-04T07:11:07.325Z,10.48
2022-11-04T07:13:14.925Z,14.57
2022-11-04T07:15:27.269Z,12.68
2022-11-04T07:17:36.756Z,11.63
2022-11-04T07:19:44.346Z,10.88
2022-11-04T07:21:51.737Z,12.38
2022-11-04T07:23:59.323Z,12.48
2022-11-04T07:26:07.584Z,15.98
2022-11-04T07:28:15.070Z,13.18
2022-11-04T07:30:22.560Z,11.60
2022-11-04T07:32:30.609Z,15.27
2022-11-04T07:34:39.543Z,14.05
2022-11-04T07:36:48.250Z,12.88
2022-11-04T07:38:55.484Z,12.85
2022-11-04T07:41:03.586Z,11.38
2022-11-04T07:43:10.717Z,14.27
2022-11-04T07:45:18.573Z,13.52
2022-11-04T07:47:25.854Z,11.65
2022-11-04T07:49:33.675Z,12.60
2022-11-04T07:51:42.719Z,11.82
2022-11-04T07:53:50.421Z,10.80
2022-11-04T07:55:57.545Z,12.50
2022-11-04T07:58:05.752Z,12.10
2022-11-04T08:00:15.901Z,14.65
2022-11-04T08:02:27.635Z,12.10
2022-11-04T08:04:36.970Z,12.05
2022-11-04T08:06:45.845Z,10.50
2022-11-04T08:08:54.955Z,14.38
2022-11-04T08:11:04.306Z,13.68
2022-11-04T08:13:11.866Z,11.80
2022-11-04T08:15:19.792Z,11.23
2022-11-04T08:17:26.973Z,10.00
2022-11-04T08:19:34.565Z,10.88
2022-11-04T08:21:41.798Z,12.57
2022-11-04T08:23:52.512Z,11.23
2022-11-04T08:26:00.131Z,13.80
2022-11-04T08:28:07.952Z,16.17
2022-11-04T08:30:15.902Z,12.35
2022-11-04T08:32:23.647Z,11.90
2022-11-04T08:34:30.776Z,13.70
2022-11-04T08:36:40.517Z,11.98
2022-11-04T08:38:49.697Z,12.65
2022-11-04T08:41:01.182Z,12.45
2022-11-04T08:43:09.630Z,10.67
2022-11-04T08:45:18.306Z,12.02
2022-11-04T08:47:25.542Z,12.00
2022-11-04T08:49:33.146Z,11.55
2022-11-04T08:51:42.103Z,16.10
2022-11-04T08:53:51.539Z,11.75
2022-11-04T08:55:59.181Z,12.05
2022-11-04T08:58:07.343Z,11.05
2022-11-04T09:00:17.334Z,11.90
2022-11-04T09:02:24.719Z,10.05
2022-11-04T09:04:31.952Z,15.35
2022-11-04T09:06:41.310Z,14.48
2022-11-04T09:08:50.461Z,13.07
2022-11-04T09:10:58.104Z,13.95
2022-11-04T09:13:05.275Z,12.52
2022-11-04T09:15:14.108Z,15.25
2022-11-04T09:17:21.442Z,15.32
2022-11-04T09:19:29.341Z,10.98
2022-11-04T09:21:36.778Z,10.90
2022-11-04T09:23:44.368Z,11.43
2022-11-04T09:25:53.240Z,10.50
2022-11-04T09:28:00.780Z,12.15
2022-11-04T09:30:08.494Z,10.93
2022-11-04T09:32:15.859Z,14.70
2022-11-04T09:34:24.016Z,12.40
2022-11-04T09:36:31.811Z,12.68
2022-11-04T09:38:39.762Z,12.05
2022-11-04T09:40:49.246Z,11.35
2022-11-04T09:43:17.623Z,11.45
2022-11-04T09:45:30.437Z,12.95
2022-11-04T09:47:39.412Z,10.80
2022-11-04T09:49:49.870Z,12.68
2022-11-04T09:51:59.515Z,13.15
2022-11-04T09:54:14.080Z,11.90
2022-11-04T09:56:25.034Z,11.75
2022-11-04T09:58:40.880Z,12.68
2022-11-04T10:00:54.647Z,13.57
2022-11-04T10:03:16.019Z,16.38
2022-11-04T10:05:45.267Z,16.02
2022-11-04T10:08:12.929Z,14.18
2022-11-04T10:10:28.048Z,14.15
2022-11-04T10:12:49.874Z,11.95
2022-11-04T10:15:16.510Z,16.20
2022-11-04T10:17:42.535Z,14.13
2022-11-04T10:20:00.419Z,13.32
2022-11-04T10:22:13.950Z,15.75
2022-11-04T10:24:27.480Z,17.02
2022-11-04T10:26:40.547Z,16.75
2022-11-04T10:28:51.109Z,13.68
2022-11-04T10:31:00.095Z,17.60
2022-11-04T10:33:14.945Z,17.30
2022-11-04T10:35:27.969Z,17.33
2022-11-04T10:37:37.454Z,19.20
2022-11-04T10:39:49.136Z,19.30
2022-11-04T10:41:57.137Z,18.73
2022-11-04T10:44:09.188Z,16.27
2022-11-04T10:46:39.660Z,16.20
2022-11-04T10:48:53.691Z,17.45
2022-11-04T10:51:03.034Z,17.98
2022-11-04T10:53:16.871Z,19.63
2022-11-04T10:55:35.221Z,19.48
2022-11-04T10:57:42.652Z,18.88
2022-11-04T10:59:59.974Z,16.20
2022-11-04T11:02:14.631Z,20.55
2022-11-04T11:04:30.416Z,17.38
2022-11-04T11:06:38.872Z,18.48
2022-11-04T11:08:47.385Z,17.80
2022-11-04T11:10:57.587Z,21.38
2022-11-04T11:13:06.156Z,17.65
2022-11-04T11:15:31.048Z,19.13
2022-11-04T11:17:43.557Z,23.55
2022-11-04T11:19:53.816Z,19.50
2022-11-04T11:22:01.614Z,22.35
2022-11-04T11:24:19.078Z,21.60
2022-11-04T11:26:34.503Z,21.23
2022-11-04T11:28:43.889Z,23.38
2022-11-04T11:31:01.931Z,19.98
2022-11-04T11:33:20.317Z,22.83
2022-11-04T11:35:33.745Z,22.25
2022-11-04T11:37:42.360Z,24.02
2022-11-04T11:39:49.759Z,22.23
2022-11-04T11:42:01.279Z,23.23
2022-11-04T11:46:24.195Z,21.90
2022-11-04T11:48:42.333Z,24.40
2022-11-04T11:50:59.814Z,24.30
2022-11-04T11:53:19.485Z,25.38
2022-11-04T11:55:29.836Z,32.45
2022-11-04T12:02:49.788Z,26.83
2022-11-04T12:10:18.412Z,29.52
2022-11-04T12:12:52.843Z,29.67
2022-11-04T12:15:13.740Z,26.13
2022-11-04T12:17:32.084Z,26.48
2022-11-04T12:19:52.116Z,32.03
2022-11-04T12:22:06.721Z,29.85
2022-11-04T12:24:28.700Z,29.67
2022-11-04T12:26:44.178Z,30.27
2022-11-04T12:29:14.303Z,32.63
2022-11-04T12:31:30.448Z,28.75
2022-11-04T12:33:45.101Z,28.08
2022-11-04T12:36:11.425Z,28.95
2022-11-04T12:38:46.207Z,32.22
2022-11-04T12:43:35.489Z,33.67
2022-11-04T12:45:54.956Z,32.83
2022-11-04T12:48:07.616Z,32.28
2022-11-04T12:50:42.139Z,29.70
2022-11-04T12:53:11.163Z,32.47
2022-11-04T12:55:43.803Z,32.53
2022-11-04T12:57:59.695Z,35.45
2022-11-04T13:00:15.992Z,36.03
2022-11-04T13:02:29.368Z,36.78
2022-11-04T13:04:42.335Z,32.63
2022-11-04T13:06:54.447Z,30.35
2022-11-04T13:09:04.744Z,35.35
2022-11-04T13:11:25.486Z,32.65
2022-11-04T13:13:36.304Z,33.63
2022-11-04T13:15:49.374Z,34.67
2022-11-04T13:18:01.931Z,31.42
2022-11-04T13:20:20.019Z,33.05
2022-11-04T13:22:30.019Z,29.38
2022-11-04T13:24:41.652Z,34.45
2022-11-04T13:26:50.679Z,34.65
2022-11-04T13:29:08.430Z,32.97
2022-11-04T13:31:25.838Z,33.75
2022-11-04T13:33:45.297Z,31.95
2022-11-04T13:35:59.910Z,34.50
2022-11-04T13:38:13.895Z,40.30
2022-11-04T13:40:23.943Z,35.80
2022-11-04T13:42:49.870Z,46.38
2022-11-04T13:44:59.400Z,38.08
2022-11-04T13:47:22.051Z,34.45
2022-11-04T13:49:35.320Z,38.22
2022-11-04T13:51:45.523Z,38.83
2022-11-04T13:53:54.503Z,36.88
2022-11-04T13:56:31.161Z,34.13
2022-11-04T13:58:31.641Z,37.80
2022-11-04T14:00:40.976Z,37.67
2022-11-04T14:02:49.270Z,39.60
2022-11-04T14:04:57.335Z,38.20
2022-11-04T14:07:07.434Z,42.72
2022-11-04T14:09:58.344Z,40.75
2022-11-04T14:12:38.545Z,36.90
2022-11-04T14:14:49.107Z,36.88
2022-11-04T14:16:56.555Z,44.28
2022-11-04T14:19:59.315Z,35.78
2022-11-04T14:22:10.608Z,37.03
2022-11-04T14:24:18.199Z,34.13
2022-11-04T14:26:28.299Z,34.05
2022-11-04T14:28:36.504Z,36.95
2022-11-04T14:30:51.738Z,37.90
2022-11-04T14:33:03.366Z,38.15
2022-11-04T14:35:20.220Z,38.75
2022-11-04T14:37:30.473Z,34.78
2022-11-04T14:39:42.212Z,33.53
2022-11-04T14:42:02.720Z,34.50
2022-11-04T14:44:18.130Z,34.72
2022-11-04T14:46:29.921Z,33.22
2022-11-04T14:48:38.024Z,35.53
2022-11-04T14:50:49.352Z,36.63
2022-11-04T14:53:00.734Z,36.15
2022-11-04T14:55:15.594Z,40.03
2022-11-04T14:57:24.978Z,36.45
2022-11-04T14:59:32.517Z,39.45
2022-11-04T15:01:43.424Z,36.70
2022-11-04T15:04:11.482Z,34.35
2022-11-04T15:06:35.174Z,35.65
2022-11-04T15:08:49.064Z,34.53
2022-11-04T15:11:01.399Z,34.40
2022-11-04T15:13:08.940Z,32.22
2022-11-04T15:15:36.397Z,34.42
2022-11-04T15:17:45.440Z,36.13
2022-11-04T15:19:54.423Z,40.63
2022-11-04T15:22:03.028Z,37.65
2022-11-04T15:24:18.145Z,46.65
2022-11-04T15:26:30.079Z,40.30
2022-11-04T15:28:42.236Z,41.63
2022-11-04T15:31:05.596Z,43.75
2022-11-04T15:33:21.329Z,39.40
2022-11-04T15:35:30.150Z,37.58
2022-11-04T15:37:38.867Z,38.55
2022-11-04T15:39:48.301Z,42.00
2022-11-04T15:42:16.542Z,43.40
2022-11-04T15:44:25.910Z,41.80
2022-11-04T15:46:33.196Z,41.08
2022-11-04T15:48:42.219Z,44.45
2022-11-04T15:50:50.018Z,45.92
2022-11-04T15:53:01.831Z,46.45
2022-11-04T15:55:25.685Z,45.40
2022-11-04T15:57:35.367Z,43.08
2022-11-04T15:59:48.334Z,40.40
2022-11-04T16:01:56.354Z,45.33
2022-11-04T16:04:05.770Z,44.33
2022-11-04T16:06:13.165Z,45.97
2022-11-04T16:08:25.143Z,48.35
2022-11-04T16:10:34.233Z,46.17
2022-11-04T16:12:46.990Z,46.17
2022-11-04T16:14:55.964Z,49.10
2022-11-04T16:17:03.764Z,47.97
2022-11-04T16:19:23.426Z,44.90
2022-11-04T16:21:33.584Z,45.20
2022-11-04T16:23:48.651Z,46.90
2022-11-04T16:26:01.925Z,46.03
2022-11-04T16:28:09.158Z,45.75
2022-11-04T16:30:23.613Z,45.60
2022-11-04T16:32:32.994Z,49.78
2022-11-04T16:34:42.435Z,42.05
2022-11-04T16:36:49.763Z,50.45
2022-11-04T16:38:58.380Z,45.05
2022-11-04T16:41:06.175Z,42.70
2022-11-04T16:43:21.659Z,45.95
2022-11-04T16:45:31.135Z,46.15
2022-11-04T16:47:43.131Z,47.63
2022-11-04T16:49:52.087Z,44.88
2022-11-04T16:52:03.844Z,46.22
2022-11-04T16:54:11.538Z,44.47
2022-11-04T16:56:19.846Z,41.40
2022-11-04T16:58:27.078Z,43.97
2022-11-04T17:00:35.745Z,46.15
2022-11-04T17:02:42.933Z,43.80
2022-11-04T17:04:52.513Z,44.92
2022-11-04T17:06:59.955Z,47.75
2022-11-04T17:09:09.828Z,43.55
2022-11-04T17:11:17.131Z,42.40
2022-11-04T17:13:24.626Z,42.85
2022-11-04T17:15:31.861Z,43.08
2022-11-04T17:17:39.340Z,43.20
2022-11-04T17:19:46.623Z,45.95
2022-11-04T17:21:56.213Z,41.55
2022-11-04T17:24:03.445Z,41.60
2022-11-04T17:26:11.088Z,44.88
2022-11-04T17:28:18.319Z,40.13
2022-11-04T17:30:26.787Z,43.28
2022-11-04T17:32:33.914Z,43.30
2022-11-04T17:34:41.811Z,39.47
2022-11-04T17:36:49.044Z,40.60
2022-11-04T17:38:58.587Z,43.97
2022-11-04T17:41:22.357Z,43.85
2022-11-04T17:43:46.018Z,43.30
2022-11-04T17:46:13.321Z,42.58
2022-11-04T17:48:20.912Z,38.60
2022-11-04T17:50:27.992Z,42.22
2022-11-04T17:52:35.839Z,39.38
2022-11-04T17:54:44.760Z,42.75
2022-11-04T17:56:52.412Z,37.45
2022-11-04T17:59:01.538Z,41.17
2022-11-04T18:01:11.588Z,42.33
2022-11-04T18:03:18.967Z,37.58
2022-11-04T18:05:26.507Z,42.92
2022-11-04T18:07:33.739Z,41.42
2022-11-04T18:09:43.943Z,37.30
2022-11-04T18:12:07.771Z,40.70
2022-11-04T18:14:17.204Z,38.00
2022-11-04T18:16:25.456Z,40.70
2022-11-04T18:18:33.252Z,40.30
2022-11-04T18:20:40.434Z,42.53
2022-11-04T18:22:48.485Z,37.08
2022-11-04T18:24:57.463Z,37.35
2022-11-04T18:27:09.921Z,35.22
2022-11-04T18:29:17.256Z,35.78
2022-11-04T18:31:28.064Z,35.15
2022-11-04T18:33:35.455Z,37.10
2022-11-04T18:35:42.840Z,33.25
2022-11-04T18:37:50.071Z,37.20
2022-11-04T18:39:59.096Z,37.83
2022-11-04T18:42:06.380Z,32.35
2022-11-04T18:44:18.421Z,37.50
2022-11-04T18:46:25.659Z,46.10
2022-11-04T18:48:33.351Z,35.50
2022-11-04T18:50:40.840Z,35.97
2022-11-04T18:52:48.281Z,35.97
2022-11-04T18:54:55.765Z,35.28
2022-11-04T18:57:05.102Z,33.83
2022-11-04T18:59:13.826Z,32.65
2022-11-04T19:01:23.558Z,36.72
2022-11-04T19:03:30.945Z,35.47
2022-11-04T19:05:42.530Z,34.15
2022-11-04T19:07:49.761Z,33.08
2022-11-04T19:09:57.250Z,34.08
2022-11-04T19:12:24.911Z,33.50
2022-11-04T19:14:32.299Z,34.83
2022-11-04T19:16:40.503Z,35.67
2022-11-04T19:18:50.398Z,31.77
2022-11-04T19:20:57.580Z,38.45
2022-11-04T19:23:04.714Z,35.95
2022-11-04T19:25:12.924Z,36.72
2022-11-04T19:27:23.940Z,38.05
2022-11-04T19:29:31.632Z,34.95
2022-11-04T19:31:39.798Z,35.03
2022-11-04T19:33:47.441Z,34.33
2022-11-04T19:35:55.736Z,37.08
2022-11-04T19:38:03.891Z,33.35
2022-11-04T19:40:12.199Z,35.85
2022-11-04T19:42:37.556Z,39.38
2022-11-04T19:44:44.585Z,34.08
2022-11-04T19:46:52.183Z,35.13
2022-11-04T19:49:00.382Z,34.45
2022-11-04T19:51:08.127Z,35.00
2022-11-04T19:53:15.493Z,34.67
2022-11-04T19:55:23.052Z,36.95
2022-11-04T19:57:33.717Z,34.67
2022-11-04T19:59:41.110Z,38.35
2022-11-04T20:01:48.489Z,38.58
2022-11-04T20:03:56.029Z,31.17
2022-11-04T20:06:03.324Z,33.47
2022-11-04T20:08:12.285Z,34.45
2022-11-04T20:10:19.979Z,33.88
2022-11-04T20:12:44.020Z,35.17
2022-11-04T20:14:52.980Z,31.83
2022-11-04T20:17:00.623Z,33.42
2022-11-04T20:19:08.375Z,34.53
2022-11-04T20:21:16.631Z,34.92
2022-11-04T20:23:24.010Z,34.88
2022-11-04T20:25:31.608Z,32.85
2022-11-04T20:27:39.910Z,33.33
2022-11-04T20:29:47.349Z,34.10
2022-11-04T20:31:56.476Z,32.92
2022-11-04T20:34:06.062Z,31.30
2022-11-04T20:36:13.550Z,35.42
2022-11-04T20:38:20.785Z,34.50
2022-11-04T20:40:28.222Z,37.38
2022-11-04T20:42:35.617Z,32.47
2022-11-04T20:44:42.994Z,33.70
2022-11-04T20:46:50.073Z,33.33
2022-11-04T20:49:00.023Z,34.67
2022-11-04T20:51:11.042Z,36.67
2022-11-04T20:53:18.529Z,34.85
2022-11-04T20:55:26.328Z,36.10
2022-11-04T20:57:33.917Z,33.45
2022-11-04T20:59:41.303Z,34.67
2022-11-04T21:01:51.151Z,34.55
2022-11-04T21:04:02.989Z,33.38
2022-11-04T21:06:10.682Z,34.97
2022-11-04T21:08:17.915Z,33.60
2022-11-04T21:10:26.173Z,34.83
2022-11-04T21:12:33.251Z,35.92
2022-11-04T21:14:40.740Z,30.48
2022-11-04T21:16:48.073Z,37.20
2022-11-04T21:18:55.569Z,35.33
2022-11-04T21:21:07.718Z,34.15
2022-11-04T21:23:16.337Z,37.75
2022-11-04T21:25:24.694Z,36.20
2022-11-04T21:27:32.232Z,38.67
2022-11-04T21:29:40.022Z,35.15
2022-11-04T21:31:48.638Z,34.97
2022-11-04T21:33:56.024Z,33.10
2022-11-04T21:36:08.582Z,37.70
2022-11-04T21:38:18.841Z,34.85
2022-11-04T21:40:26.101Z,37.92
2022-11-04T21:42:33.513Z,35.75
2022-11-04T21:44:40.695Z,40.60
2022-11-04T21:46:49.507Z,35.83
2022-11-04T21:48:58.071Z,41.35
2022-11-04T21:51:09.409Z,36.75
2022-11-04T21:53:16.531Z,33.58
2022-11-04T21:55:24.020Z,37.05
2022-11-04T21:57:31.260Z,35.65
2022-11-04T21:59:38.996Z,35.03
2022-11-04T22:01:46.367Z,37.50
2022-11-04T22:03:55.509Z,34.67
2022-11-04T22:06:03.933Z,35.83
2022-11-04T22:08:22.573Z,40.53
2022-11-04T22:10:31.440Z,39.33
2022-11-04T22:12:38.930Z,36.78
2022-11-04T22:14:46.113Z,43.10
2022-11-04T22:16:53.959Z,41.28
2022-11-04T22:19:02.891Z,41.20
2022-11-04T22:21:11.905Z,38.75
2022-11-04T22:23:20.930Z,36.58
2022-11-04T22:25:28.114Z,39.10
2022-11-04T22:27:36.011Z,40.92
2022-11-04T22:29:43.294Z,42.92
2022-11-04T22:31:50.946Z,42.72
2022-11-04T22:33:58.582Z,41.92
2022-11-04T22:36:06.323Z,42.38
2022-11-04T22:38:13.615Z,40.25
2022-11-04T22:40:23.349Z,42.67
2022-11-04T22:42:30.531Z,42.75
2022-11-04T22:44:38.078Z,44.33
2022-11-04T22:46:45.566Z,42.00
2022-11-04T22:48:53.152Z,40.15
2022-11-04T22:51:01.511Z,43.90
2022-11-04T22:53:09.596Z,42.50
2022-11-04T22:55:17.205Z,43.50
2022-11-04T22:57:26.385Z,45.60
2022-11-04T22:59:33.616Z,43.08
2022-11-04T23:01:41.472Z,39.33
2022-11-04T23:03:48.800Z,41.83
2022-11-04T23:05:59.565Z,40.28
2022-11-04T23:08:07.161Z,44.67
2022-11-04T23:10:31.497Z,42.47
2022-11-04T23:12:56.846Z,43.08
2022-11-04T23:15:29.424Z,45.28
2022-11-04T23:17:53.246Z,42.78
2022-11-04T23:20:00.632Z,43.47
2022-11-04T23:22:24.365Z,41.50
2022-11-04T23:24:48.889Z,45.20
2022-11-04T23:26:56.172Z,51.38
2022-11-04T23:29:21.633Z,47.28
2022-11-04T23:31:29.231Z,44.45
2022-11-04T23:33:49.463Z,48.95
2022-11-04T23:36:12.463Z,46.33
2022-11-04T23:38:19.799Z,46.45
2022-11-04T23:40:27.449Z,45.53
2022-11-04T23:42:33.344Z,45.08
2022-11-04T23:44:58.752Z,49.83
2022-11-04T23:47:22.318Z,51.42
2022-11-04T23:49:46.450Z,51.78
2022-11-04T23:52:10.116Z,46.97
2022-11-04T23:54:33.841Z,50.58
2022-11-04T23:56:58.229Z,50.25
2022-11-04T23:59:21.580Z,50.45
